createdAt,value
2018-07-30T19:21:58.078Z,63.20
2018-07-30T19:24:27.194Z,80.20
2018-07-30T19:26:56.533Z,79.70
2018-07-30T19:29:25.629Z,82.30
2018-07-30T19:31:54.754Z,80.60
2018-07-30T19:34:27.599Z,81.20
2018-07-30T19:36:57.038Z,82.20
2018-07-30T19:39:29.125Z,82.90
2018-07-30T19:41:58.490Z,84.10
2018-07-30T19:44:27.905Z,84.60
2018-07-30T19:49:25.714Z,87.50
2018-07-30T19:51:58.815Z,88.30
2018-07-30T19:54:28.194Z,89.20
2018-07-30T19:56:59.640Z,90.30
2018-07-30T19:59:28.865Z,90.20
2018-07-30T20:01:58.226Z,90.70
2018-07-30T20:04:27.763Z,90.70
2018-07-30T20:07:13.242Z,90.10
2018-07-30T20:09:42.437Z,90.50
2018-07-30T20:12:11.378Z,90.60
2018-07-30T20:14:40.205Z,92.20
2018-07-30T20:17:09.020Z,92.50
2018-07-30T20:19:37.624Z,93.30
2018-07-30T20:22:06.679Z,93.70
2018-07-30T20:24:35.877Z,94.20
2018-07-30T20:27:05.230Z,94.90
2018-07-30T20:29:34.916Z,95.30
2018-07-30T20:32:09.282Z,94.90
2018-07-30T20:34:38.310Z,95.20
2018-07-30T20:37:08.359Z,94.20
2018-07-30T20:41:42.821Z,99.30
2018-07-30T20:44:11.954Z,97.30
2018-07-30T20:46:45.465Z,97.50
2018-07-30T20:49:15.234Z,98.40
2018-07-30T20:51:45.006Z,99.10
2018-07-30T20:54:15.579Z,98.90
2018-07-30T20:56:50.448Z,98.90
2018-07-30T20:59:20.369Z,98.60
2018-07-30T21:01:49.545Z,98.50
2018-07-30T21:04:19.412Z,97.70
2018-07-30T21:06:48.450Z,97.10
2018-07-30T21:09:17.219Z,96.40
2018-07-30T21:11:46.036Z,98.90
2018-07-30T21:14:15.040Z,97.80
2018-07-30T21:16:44.116Z,98.50
2018-07-30T21:19:30.300Z,96.70
2018-07-30T21:24:36.966Z,97.00
2018-07-30T21:27:14.514Z,98.10
2018-07-30T21:32:47.982Z,98.60
2018-07-30T21:35:31.859Z,98.50
2018-07-30T21:41:10.881Z,99.60
2018-07-30T21:43:54.108Z,99.00
2018-07-30T21:49:23.735Z,99.90
2018-07-30T21:51:55.956Z,99.90
2018-07-30T21:57:02.212Z,99.90
2018-07-30T21:59:33.603Z,99.90
2018-07-30T22:02:03.126Z,99.90
2018-07-30T22:04:35.777Z,99.90
2018-07-30T22:07:05.536Z,99.90
2018-07-30T22:09:35.280Z,99.90
2018-07-30T22:12:17.262Z,99.90
2018-07-30T22:17:50.934Z,99.90
2018-07-30T22:20:27.795Z,99.90
2018-07-30T22:23:03.097Z,99.90
2018-07-30T22:25:42.553Z,99.90
2018-07-30T22:28:13.582Z,99.90
2018-07-30T23:00:01.416Z,99.90
2018-07-30T23:02:33.647Z,99.90
2018-07-30T23:05:12.039Z,99.90
2018-07-30T23:07:47.607Z,99.90
2018-07-30T23:10:23.686Z,99.90
2018-07-30T23:13:24.601Z,99.90
2018-07-30T23:15:56.102Z,99.90
2018-07-30T23:18:25.374Z,99.90
2018-07-30T23:21:08.214Z,99.90
2018-07-30T23:26:22.715Z,99.90
2018-07-30T23:29:10.397Z,99.90
2018-07-30T23:31:50.556Z,99.90
2018-07-30T23:34:23.335Z,99.90
2018-07-30T23:36:53.110Z,99.90
2018-07-30T23:42:11.387Z,99.90
2018-07-30T23:44:40.649Z,99.90
2018-07-30T23:47:09.973Z,99.90
2018-07-30T23:49:40.449Z,99.90
2018-07-30T23:52:09.758Z,99.90
2018-07-30T23:54:38.752Z,99.90
2018-07-30T23:59:50.662Z,99.90
